createdAt,value
2017-10-24T00:00:34.395Z,0.00
2017-10-24T00:01:34.390Z,0.00
2017-10-24T00:02:34.392Z,0.00
2017-10-24T00:03:34.388Z,0.00
2017-10-24T00:04:34.390Z,0.00
2017-10-24T00:05:34.379Z,0.00
2017-10-24T00:06:34.373Z,0.00
2017-10-24T00:07:34.371Z,0.00
2017-10-24T00:08:34.366Z,0.00
2017-10-24T00:09:34.362Z,0.00
2017-10-24T00:10:34.354Z,0.00
2017-10-24T00:11:34.348Z,0.00
2017-10-24T00:12:34.344Z,0.00
2017-10-24T00:13:34.340Z,0.00
2017-10-24T00:14:34.338Z,0.00
2017-10-24T00:15:34.335Z,0.00
2017-10-24T00:16:34.328Z,0.00
2017-10-24T00:17:34.325Z,0.00
2017-10-24T00:18:34.324Z,0.00
2017-10-24T00:19:34.321Z,0.00
2017-10-24T00:20:34.314Z,0.00
2017-10-24T00:21:34.311Z,0.00
2017-10-24T00:22:34.308Z,0.00
2017-10-24T00:23:34.303Z,0.00
2017-10-24T00:24:34.300Z,0.00
2017-10-24T00:25:34.294Z,0.00
2017-10-24T00:26:34.287Z,0.00
2017-10-24T00:27:34.282Z,0.00
2017-10-24T00:28:34.278Z,0.00
2017-10-24T00:29:34.274Z,0.00
2017-10-24T00:30:34.269Z,0.00
2017-10-24T00:31:34.266Z,0.00
2017-10-24T00:32:34.261Z,0.00
2017-10-24T00:33:34.257Z,0.00
2017-10-24T00:34:34.257Z,0.00
2017-10-24T00:35:34.254Z,0.00
2017-10-24T00:36:34.249Z,0.00
2017-10-24T00:37:34.245Z,0.00
2017-10-24T00:38:34.242Z,0.00
2017-10-24T00:39:34.237Z,0.00
2017-10-24T00:40:34.231Z,0.00
2017-10-24T00:41:34.228Z,0.00
2017-10-24T00:42:34.220Z,0.00
2017-10-24T00:43:34.216Z,0.00
2017-10-24T00:44:34.211Z,0.00
2017-10-24T00:45:34.208Z,0.00
2017-10-24T00:46:34.203Z,0.00
2017-10-24T00:47:34.201Z,0.00
2017-10-24T00:48:34.196Z,0.00
2017-10-24T00:49:34.190Z,0.00
2017-10-24T00:50:34.192Z,0.00
2017-10-24T00:51:34.188Z,0.00
2017-10-24T00:52:34.184Z,0.00
2017-10-24T00:53:34.180Z,0.00
2017-10-24T00:54:34.175Z,0.00
2017-10-24T00:55:34.172Z,0.00
2017-10-24T00:56:34.166Z,0.00
2017-10-24T00:57:34.164Z,0.00
2017-10-24T00:58:34.155Z,0.00
2017-10-24T00:59:34.151Z,0.00
2017-10-24T01:00:34.146Z,0.00
2017-10-24T01:01:34.143Z,0.00
2017-10-24T01:02:34.143Z,0.00
2017-10-24T01:03:34.140Z,0.00
2017-10-24T01:04:34.134Z,0.00
2017-10-24T01:05:34.130Z,0.00
2017-10-24T01:06:34.122Z,0.00
2017-10-24T01:07:34.120Z,0.00
2017-10-24T01:08:34.114Z,0.00
2017-10-24T01:09:34.115Z,0.00
2017-10-24T01:10:34.105Z,0.00
2017-10-24T01:11:34.102Z,0.00
2017-10-24T01:12:34.097Z,0.00
2017-10-24T01:13:34.094Z,0.00
2017-10-24T01:14:34.095Z,0.00
2017-10-24T01:15:34.090Z,0.00
2017-10-24T01:16:34.086Z,0.00
2017-10-24T01:17:34.081Z,0.00
2017-10-24T01:18:34.079Z,0.00
2017-10-24T01:19:34.074Z,0.00
2017-10-24T01:20:34.069Z,0.00
2017-10-24T01:21:34.064Z,0.00
2017-10-24T01:22:34.057Z,0.00
2017-10-24T01:23:34.070Z,0.00
2017-10-24T01:24:34.048Z,0.00
2017-10-24T01:25:34.044Z,0.00
2017-10-24T01:26:34.041Z,0.00
2017-10-24T01:27:34.036Z,0.00
2017-10-24T01:28:34.031Z,0.00
2017-10-24T01:29:34.027Z,0.00
2017-10-24T01:30:34.028Z,0.00
2017-10-24T01:31:34.024Z,0.00
2017-10-24T01:32:34.019Z,0.00
2017-10-24T01:33:34.016Z,0.00
2017-10-24T01:34:34.010Z,0.00
2017-10-24T01:35:34.007Z,0.00
2017-10-24T01:36:34.001Z,0.00
2017-10-24T01:37:33.997Z,0.00
2017-10-24T01:38:33.989Z,0.00
2017-10-24T01:39:33.985Z,0.00
2017-10-24T01:40:33.981Z,0.00
2017-10-24T01:41:33.976Z,0.00
2017-10-24T01:42:33.972Z,0.00
2017-10-24T01:43:33.969Z,0.00
2017-10-24T01:44:33.962Z,0.00
2017-10-24T01:45:33.959Z,0.00
2017-10-24T01:46:33.959Z,0.00
2017-10-24T01:47:33.956Z,0.00
2017-10-24T01:48:33.949Z,0.00
2017-10-24T01:49:33.946Z,0.00
2017-10-24T01:50:33.942Z,0.00
2017-10-24T01:51:33.937Z,0.00
2017-10-24T01:52:33.933Z,0.00
2017-10-24T01:53:33.929Z,0.00
2017-10-24T01:54:33.921Z,0.00
2017-10-24T01:55:33.917Z,0.00
2017-10-24T01:56:33.914Z,0.00
2017-10-24T01:57:33.907Z,0.00
2017-10-24T01:58:33.906Z,0.00
2017-10-24T01:59:33.902Z,0.00
2017-10-24T02:00:33.895Z,0.00
2017-10-24T02:01:33.892Z,0.00
2017-10-24T02:02:33.893Z,0.00
2017-10-24T02:03:33.891Z,0.00
2017-10-24T02:04:33.883Z,0.00
2017-10-24T02:05:33.878Z,0.00
2017-10-24T02:06:33.869Z,0.00
2017-10-24T02:07:33.873Z,0.00
2017-10-24T02:08:33.862Z,0.00
2017-10-24T02:09:33.857Z,0.00
2017-10-24T02:10:33.859Z,0.00
2017-10-24T02:11:33.854Z,0.00
2017-10-24T02:12:33.849Z,0.00
2017-10-24T02:13:33.849Z,0.00
2017-10-24T02:14:33.843Z,0.00
2017-10-24T02:15:33.843Z,0.00
2017-10-24T02:16:33.831Z,0.00
2017-10-24T02:17:33.830Z,0.00
2017-10-24T02:18:33.819Z,0.00
2017-10-24T02:19:33.818Z,0.00
2017-10-24T02:20:33.810Z,0.00
2017-10-24T02:21:33.806Z,0.00
2017-10-24T02:22:33.804Z,0.00
2017-10-24T02:23:33.798Z,0.00
2017-10-24T02:24:33.793Z,0.00
2017-10-24T02:25:33.788Z,0.00
2017-10-24T02:26:33.789Z,0.00
2017-10-24T02:27:33.785Z,0.00
2017-10-24T02:28:33.787Z,0.00
2017-10-24T02:29:33.775Z,0.00
2017-10-24T02:30:33.770Z,0.00
2017-10-24T02:31:33.767Z,0.00
2017-10-24T02:32:33.763Z,0.00
2017-10-24T02:33:33.761Z,0.00
2017-10-24T02:34:33.750Z,0.00
2017-10-24T02:35:33.746Z,0.00
2017-10-24T02:36:33.741Z,0.00
2017-10-24T02:37:33.737Z,0.00
2017-10-24T02:38:33.733Z,0.00
2017-10-24T02:39:33.727Z,0.00
2017-10-24T02:40:33.725Z,0.00
2017-10-24T02:41:33.720Z,0.00
2017-10-24T02:42:33.718Z,0.00
2017-10-24T02:43:33.716Z,0.00
2017-10-24T02:44:33.709Z,0.00
2017-10-24T02:45:33.707Z,0.00
2017-10-24T02:46:33.701Z,0.00
2017-10-24T02:47:33.697Z,0.00
2017-10-24T02:48:33.692Z,0.00
2017-10-24T02:49:33.690Z,0.00
2017-10-24T02:50:33.678Z,0.00
2017-10-24T02:51:33.676Z,0.00
2017-10-24T02:52:33.670Z,0.00
2017-10-24T02:53:33.665Z,0.00
2017-10-24T02:54:33.659Z,0.00
2017-10-24T02:55:33.660Z,0.00
2017-10-24T02:56:33.651Z,0.00
2017-10-24T02:57:33.647Z,0.00
2017-10-24T02:58:33.646Z,0.00
2017-10-24T02:59:33.641Z,0.00
2017-10-24T03:00:33.638Z,0.00
2017-10-24T03:01:33.637Z,0.00
2017-10-24T03:02:33.628Z,0.00
2017-10-24T03:03:33.625Z,0.00
2017-10-24T03:04:33.619Z,0.00
2017-10-24T03:05:33.614Z,0.00
2017-10-24T03:06:33.614Z,0.00
2017-10-24T03:07:33.602Z,0.00
2017-10-24T03:08:33.598Z,0.00
2017-10-24T03:09:33.592Z,0.00
2017-10-24T03:10:33.592Z,0.00
2017-10-24T03:11:33.587Z,0.00
2017-10-24T03:12:33.582Z,0.00
2017-10-24T03:13:33.585Z,0.00
2017-10-24T03:14:33.569Z,0.00
2017-10-24T03:15:33.566Z,0.00
2017-10-24T03:16:33.560Z,0.00
2017-10-24T03:17:33.556Z,0.00
2017-10-24T03:18:33.551Z,0.00
2017-10-24T03:19:33.548Z,0.00
2017-10-24T03:20:33.542Z,0.00
2017-10-24T03:21:33.537Z,0.00
2017-10-24T03:22:33.538Z,0.00
2017-10-24T03:23:33.533Z,0.00
2017-10-24T03:24:33.527Z,0.00
2017-10-24T03:25:33.524Z,0.00
2017-10-24T03:26:33.518Z,0.00
2017-10-24T03:27:33.515Z,0.00
2017-10-24T03:28:33.510Z,0.00
2017-10-24T03:29:33.505Z,0.00
2017-10-24T03:30:33.498Z,0.00
2017-10-24T03:31:33.492Z,0.00
2017-10-24T03:32:33.487Z,0.00
2017-10-24T03:33:33.481Z,0.00
2017-10-24T03:34:33.478Z,0.00
2017-10-24T03:35:33.476Z,0.00
2017-10-24T03:36:33.467Z,0.00
2017-10-24T03:37:33.465Z,0.00
2017-10-24T03:38:33.464Z,0.00
2017-10-24T03:39:33.459Z,0.00
2017-10-24T03:40:33.454Z,0.00
2017-10-24T03:41:33.449Z,0.00
2017-10-24T03:42:33.444Z,0.00
2017-10-24T03:43:33.440Z,0.00
2017-10-24T03:44:33.436Z,0.00
2017-10-24T03:45:33.431Z,0.00
2017-10-24T03:46:33.438Z,0.00
2017-10-24T03:47:33.418Z,0.00
2017-10-24T03:48:33.411Z,0.00
2017-10-24T03:49:33.417Z,0.00
2017-10-24T03:50:33.404Z,0.00
2017-10-24T03:51:33.400Z,0.00
2017-10-24T03:52:33.394Z,0.00
2017-10-24T03:53:33.388Z,0.00
2017-10-24T03:54:33.392Z,0.00
2017-10-24T03:55:33.384Z,0.00
2017-10-24T03:56:33.384Z,0.00
2017-10-24T03:57:33.374Z,0.00
2017-10-24T03:58:33.370Z,0.00
2017-10-24T03:59:33.369Z,0.00
2017-10-24T04:00:33.361Z,0.00
2017-10-24T04:01:33.359Z,0.00
2017-10-24T04:02:33.350Z,0.00
2017-10-24T04:03:33.344Z,0.00
2017-10-24T04:04:33.338Z,0.00
2017-10-24T04:05:33.335Z,0.00
2017-10-24T04:06:33.328Z,0.00
2017-10-24T04:07:33.325Z,0.00
2017-10-24T04:08:33.318Z,0.00
2017-10-24T04:09:33.314Z,0.00
2017-10-24T04:10:33.314Z,0.00
2017-10-24T04:11:33.310Z,0.00
2017-10-24T04:12:33.303Z,0.00
2017-10-24T04:13:33.300Z,0.00
2017-10-24T04:14:33.293Z,0.00
2017-10-24T04:15:33.287Z,0.00
2017-10-24T04:16:33.281Z,0.00
2017-10-24T04:17:33.276Z,0.00
2017-10-24T04:18:33.276Z,0.00
2017-10-24T04:19:33.273Z,0.00
2017-10-24T04:20:33.265Z,0.00
2017-10-24T04:21:33.262Z,0.00
2017-10-24T04:22:33.257Z,0.00
2017-10-24T04:23:33.251Z,0.00
2017-10-24T04:24:33.248Z,0.00
2017-10-24T04:25:33.246Z,0.00
2017-10-24T04:26:33.233Z,0.00
2017-10-24T04:27:33.230Z,0.00
2017-10-24T04:28:33.223Z,0.00
2017-10-24T04:29:33.219Z,0.00
2017-10-24T04:30:33.215Z,0.00
2017-10-24T04:31:33.217Z,0.00
2017-10-24T04:32:33.206Z,0.00
2017-10-24T04:33:33.202Z,0.00
2017-10-24T04:34:33.201Z,0.00
2017-10-24T04:35:33.198Z,0.00
2017-10-24T04:36:33.197Z,0.00
2017-10-24T04:37:33.188Z,0.00
2017-10-24T04:38:33.183Z,0.00
2017-10-24T04:39:33.178Z,0.00
2017-10-24T04:40:33.174Z,0.00
2017-10-24T04:41:33.169Z,0.00
2017-10-24T04:42:33.160Z,0.00
2017-10-24T04:43:33.155Z,0.00
2017-10-24T04:44:33.151Z,0.00
2017-10-24T04:45:33.147Z,0.00
2017-10-24T04:46:33.142Z,0.00
2017-10-24T04:47:33.138Z,0.00
2017-10-24T04:48:33.133Z,0.00
2017-10-24T04:49:33.129Z,0.00
2017-10-24T04:50:33.129Z,0.00
2017-10-24T04:51:33.124Z,0.00
2017-10-24T04:52:33.120Z,0.00
2017-10-24T04:53:33.116Z,0.00
2017-10-24T04:54:33.113Z,0.00
2017-10-24T04:55:33.108Z,0.00
2017-10-24T04:56:33.102Z,0.00
2017-10-24T04:57:33.098Z,0.00
2017-10-24T04:58:33.090Z,0.00
2017-10-24T04:59:33.084Z,0.00
2017-10-24T05:00:33.079Z,0.00
2017-10-24T05:01:33.079Z,0.00
2017-10-24T05:02:33.071Z,0.00
2017-10-24T05:03:33.068Z,0.00
2017-10-24T05:04:33.067Z,0.00
2017-10-24T05:05:33.058Z,0.00
2017-10-24T05:06:33.058Z,0.00
2017-10-24T05:07:33.054Z,0.00
2017-10-24T05:08:33.050Z,0.00
2017-10-24T05:09:33.049Z,0.00
2017-10-24T05:10:33.041Z,0.00
2017-10-24T05:11:33.037Z,0.00
2017-10-24T05:12:33.030Z,0.00
2017-10-24T05:13:33.026Z,0.00
2017-10-24T05:14:33.019Z,0.00
2017-10-24T05:15:33.014Z,0.00
2017-10-24T05:16:33.015Z,0.00
2017-10-24T05:17:33.005Z,0.00
2017-10-24T05:18:33.001Z,0.00
2017-10-24T05:19:32.998Z,0.00
2017-10-24T05:20:32.992Z,0.00
2017-10-24T05:21:32.993Z,0.00
2017-10-24T05:22:32.986Z,0.00
2017-10-24T05:23:32.983Z,0.00
2017-10-24T05:24:32.977Z,0.00
2017-10-24T05:25:32.972Z,0.00
2017-10-24T05:26:32.972Z,0.00
2017-10-24T05:27:32.965Z,0.00
2017-10-24T05:28:32.960Z,0.00
2017-10-24T05:29:32.955Z,0.00
2017-10-24T05:30:32.947Z,0.00
2017-10-24T05:31:32.943Z,0.00
2017-10-24T05:32:32.937Z,0.00
2017-10-24T05:33:32.933Z,0.00
2017-10-24T05:34:32.930Z,0.00
2017-10-24T05:35:32.924Z,0.00
2017-10-24T05:36:32.918Z,0.00
2017-10-24T05:37:32.914Z,0.00
2017-10-24T05:38:32.914Z,0.00
2017-10-24T05:39:32.910Z,0.00
2017-10-24T05:40:32.904Z,0.00
2017-10-24T05:41:32.899Z,0.00
2017-10-24T05:42:32.897Z,0.00
2017-10-24T05:43:32.891Z,0.00
2017-10-24T05:44:32.887Z,0.00
2017-10-24T05:45:32.885Z,4.00
2017-10-24T05:46:32.874Z,4.00
2017-10-24T05:47:32.868Z,4.00
2017-10-24T05:48:32.865Z,4.00
2017-10-24T05:49:32.859Z,0.00
2017-10-24T05:50:32.854Z,4.00
2017-10-24T05:51:32.852Z,4.00
2017-10-24T05:52:32.846Z,4.00
2017-10-24T05:53:32.841Z,4.00
2017-10-24T05:54:32.841Z,4.00
2017-10-24T05:55:32.839Z,4.00
2017-10-24T05:56:32.835Z,4.00
2017-10-24T05:57:32.827Z,8.00
2017-10-24T05:58:32.822Z,8.00
2017-10-24T05:59:32.821Z,12.00
2017-10-24T06:00:32.813Z,16.00
2017-10-24T06:01:32.808Z,16.00
2017-10-24T06:02:32.801Z,20.00
2017-10-24T06:03:32.796Z,24.00
2017-10-24T06:04:32.791Z,28.00
2017-10-24T06:05:32.787Z,32.00
2017-10-24T06:06:32.783Z,32.00
2017-10-24T06:07:32.777Z,36.00
2017-10-24T06:08:32.773Z,44.00
2017-10-24T06:09:32.769Z,44.00
2017-10-24T06:10:32.769Z,52.00
2017-10-24T06:11:32.765Z,56.00
2017-10-24T06:12:32.760Z,60.00
2017-10-24T06:13:32.755Z,68.00
2017-10-24T06:14:32.750Z,72.00
2017-10-24T06:15:32.748Z,76.00
2017-10-24T06:16:32.741Z,80.00
2017-10-24T06:17:32.738Z,92.00
2017-10-24T06:18:32.729Z,100.00
2017-10-24T06:19:32.725Z,112.00
2017-10-24T06:20:32.719Z,124.00
2017-10-24T06:21:32.718Z,140.00
2017-10-24T06:22:32.715Z,156.00
2017-10-24T06:23:32.714Z,180.00
2017-10-24T06:24:32.707Z,196.00
2017-10-24T06:25:32.701Z,216.00
2017-10-24T06:26:32.693Z,220.00
2017-10-24T06:27:32.688Z,248.00
2017-10-24T06:28:32.683Z,252.00
2017-10-24T06:29:32.680Z,248.00
2017-10-24T06:30:32.675Z,252.00
2017-10-24T06:31:32.671Z,272.00
2017-10-24T06:32:32.666Z,288.00
2017-10-24T06:33:32.661Z,296.00
2017-10-24T06:34:32.661Z,296.00
2017-10-24T06:35:32.657Z,312.00
2017-10-24T06:36:32.652Z,336.00
2017-10-24T06:37:32.647Z,360.00
2017-10-24T06:38:32.641Z,384.00
2017-10-24T06:39:32.638Z,384.00
2017-10-24T06:40:32.632Z,364.00
2017-10-24T06:41:32.629Z,348.00
2017-10-24T06:42:32.621Z,304.00
2017-10-24T06:43:32.615Z,300.00
2017-10-24T06:44:32.624Z,284.00
2017-10-24T06:45:32.605Z,300.00
2017-10-24T06:46:32.602Z,308.00
2017-10-24T06:47:32.598Z,356.00
2017-10-24T06:48:32.595Z,380.00
2017-10-24T06:49:32.587Z,380.00
2017-10-24T06:50:32.588Z,388.00
2017-10-24T06:51:32.582Z,420.00
2017-10-24T06:52:32.577Z,460.00
2017-10-24T06:53:32.571Z,528.00
2017-10-24T06:54:32.567Z,548.00
2017-10-24T06:55:32.569Z,580.00
2017-10-24T06:56:32.559Z,604.00
2017-10-24T06:57:32.555Z,652.00
2017-10-24T06:58:32.545Z,716.00
2017-10-24T06:59:32.541Z,764.00
2017-10-24T07:00:32.538Z,756.00
2017-10-24T07:01:32.530Z,740.00
2017-10-24T07:02:32.525Z,700.00
2017-10-24T07:03:32.522Z,680.00
2017-10-24T07:04:32.517Z,648.00
2017-10-24T07:05:32.517Z,592.00
2017-10-24T07:06:32.511Z,536.00
2017-10-24T07:07:32.512Z,532.00
2017-10-24T07:08:32.500Z,524.00
2017-10-24T07:09:32.497Z,524.00
2017-10-24T07:10:32.493Z,488.00
2017-10-24T07:11:32.490Z,472.00
2017-10-24T07:12:32.484Z,540.00
2017-10-24T07:13:32.478Z,668.00
2017-10-24T07:14:32.471Z,816.00
2017-10-24T07:15:32.466Z,872.00
2017-10-24T07:16:32.461Z,920.00
2017-10-24T07:17:32.464Z,952.00
2017-10-24T07:18:32.452Z,1108.00
2017-10-24T07:19:32.447Z,1220.00
2017-10-24T07:20:32.441Z,1272.00
2017-10-24T07:21:32.437Z,1324.00
2017-10-24T07:22:32.436Z,1340.00
2017-10-24T07:23:32.433Z,1416.00
2017-10-24T07:24:32.426Z,1528.00
2017-10-24T07:25:32.427Z,1632.00
2017-10-24T07:26:32.416Z,1668.00
2017-10-24T07:27:32.412Z,1596.00
2017-10-24T07:28:32.404Z,1532.00
2017-10-24T07:29:32.400Z,1476.00
2017-10-24T07:30:32.401Z,1424.00
2017-10-24T07:31:32.396Z,1416.00
2017-10-24T07:32:32.392Z,1456.00
2017-10-24T07:33:32.385Z,1512.00
2017-10-24T07:34:32.382Z,1532.00
2017-10-24T07:35:32.376Z,1540.00
2017-10-24T07:36:32.372Z,1460.00
2017-10-24T07:37:32.369Z,1508.00
2017-10-24T07:38:32.359Z,1680.00
2017-10-24T07:39:32.355Z,1728.00
2017-10-24T07:40:32.350Z,1788.00
2017-10-24T07:41:32.369Z,1856.00
2017-10-24T07:42:32.342Z,2112.00
2017-10-24T07:43:32.339Z,2240.00
2017-10-24T07:44:32.333Z,2444.00
2017-10-24T07:45:32.328Z,2544.00
2017-10-24T07:46:32.329Z,2652.00
2017-10-24T07:47:32.324Z,2716.00
2017-10-24T07:48:32.319Z,2640.00
2017-10-24T07:49:32.316Z,2608.00
2017-10-24T07:50:32.311Z,2540.00
2017-10-24T07:51:32.307Z,2408.00
2017-10-24T07:52:32.302Z,2344.00
2017-10-24T07:53:32.297Z,2496.00
2017-10-24T07:54:32.293Z,2712.00
2017-10-24T07:55:32.285Z,2696.00
2017-10-24T07:56:32.280Z,2776.00
2017-10-24T07:57:32.277Z,2848.00
2017-10-24T07:58:32.272Z,2952.00
2017-10-24T07:59:32.268Z,2796.00
2017-10-24T08:00:32.267Z,2948.00
2017-10-24T08:01:32.261Z,3088.00
2017-10-24T08:02:32.260Z,3152.00
2017-10-24T08:03:32.255Z,3192.00
2017-10-24T08:04:32.251Z,3064.00
2017-10-24T08:05:32.248Z,2772.00
2017-10-24T08:06:32.244Z,2404.00
2017-10-24T08:07:32.240Z,2416.00
2017-10-24T08:08:32.235Z,2556.00
2017-10-24T08:09:32.231Z,2640.00
2017-10-24T08:10:32.223Z,3300.00
2017-10-24T08:11:32.221Z,3320.00
2017-10-24T08:12:32.215Z,3512.00
2017-10-24T08:13:32.217Z,3368.00
2017-10-24T08:14:32.206Z,3016.00
2017-10-24T08:15:32.204Z,2732.00
2017-10-24T08:16:32.204Z,2596.00
2017-10-24T08:17:32.211Z,2720.00
2017-10-24T08:18:32.197Z,2780.00
2017-10-24T08:19:32.192Z,3084.00
2017-10-24T08:20:32.191Z,3320.00
2017-10-24T08:21:32.185Z,3636.00
2017-10-24T08:22:32.182Z,3908.00
2017-10-24T08:23:32.179Z,4284.00
2017-10-24T08:24:32.173Z,4896.00
2017-10-24T08:25:32.170Z,5084.00
2017-10-24T08:26:32.162Z,5248.00
2017-10-24T08:27:32.159Z,5840.00
2017-10-24T08:28:32.155Z,6696.00
2017-10-24T08:29:32.150Z,6256.00
2017-10-24T08:30:32.150Z,5824.00
2017-10-24T08:31:32.147Z,5192.00
2017-10-24T08:32:32.144Z,4660.00
2017-10-24T08:33:32.140Z,5448.00
2017-10-24T08:34:32.134Z,4240.00
2017-10-24T08:35:32.130Z,3912.00
2017-10-24T08:36:32.125Z,4072.00
2017-10-24T08:37:32.122Z,3640.00
2017-10-24T08:38:32.120Z,3576.00
2017-10-24T08:39:32.116Z,3136.00
2017-10-24T08:40:32.112Z,3352.00
2017-10-24T08:41:32.110Z,3404.00
2017-10-24T08:42:32.111Z,2836.00
2017-10-24T08:43:32.106Z,2228.00
2017-10-24T08:44:32.103Z,2004.00
2017-10-24T08:45:32.099Z,2324.00
2017-10-24T08:46:32.104Z,3016.00
2017-10-24T08:47:32.093Z,3352.00
2017-10-24T08:48:32.090Z,3104.00
2017-10-24T08:49:32.087Z,3032.00
2017-10-24T08:50:32.083Z,3360.00
2017-10-24T08:51:32.076Z,3332.00
2017-10-24T08:52:32.072Z,3848.00
2017-10-24T08:53:32.070Z,4020.00
2017-10-24T08:54:32.065Z,3320.00
2017-10-24T08:55:32.063Z,3116.00
2017-10-24T08:56:32.059Z,3580.00
2017-10-24T08:57:32.057Z,4388.00
2017-10-24T08:58:32.057Z,3980.00
2017-10-24T08:59:32.058Z,4520.00
2017-10-24T09:00:32.052Z,4396.00
2017-10-24T09:01:32.048Z,4304.00
2017-10-24T09:02:32.043Z,4204.00
2017-10-24T09:03:32.050Z,5048.00
2017-10-24T09:04:32.040Z,5588.00
2017-10-24T09:05:32.033Z,4996.00
2017-10-24T09:06:32.028Z,4392.00
2017-10-24T09:07:32.025Z,4008.00
2017-10-24T09:08:32.022Z,3504.00
2017-10-24T09:09:32.018Z,2676.00
2017-10-24T09:10:32.016Z,2808.00
2017-10-24T09:11:32.012Z,2988.00
2017-10-24T09:12:32.007Z,2984.00
2017-10-24T09:13:32.004Z,2904.00
2017-10-24T09:14:32.007Z,3004.00
2017-10-24T09:15:32.004Z,3368.00
2017-10-24T09:16:32.000Z,3712.00
2017-10-24T09:17:32.003Z,3920.00
2017-10-24T09:18:31.992Z,4192.00
2017-10-24T09:19:31.991Z,4436.00
2017-10-24T09:20:31.987Z,4936.00
2017-10-24T09:21:31.984Z,5224.00
2017-10-24T09:22:31.976Z,5508.00
2017-10-24T09:23:31.973Z,6024.00
2017-10-24T09:24:31.972Z,6460.00
2017-10-24T09:25:31.970Z,6680.00
2017-10-24T09:26:31.965Z,5964.00
2017-10-24T09:27:31.963Z,5084.00
2017-10-24T09:28:31.958Z,5388.00
2017-10-24T09:29:31.955Z,6244.00
2017-10-24T09:30:31.957Z,6232.00
2017-10-24T09:31:31.955Z,5756.00
2017-10-24T09:32:31.950Z,5476.00
2017-10-24T09:33:31.949Z,4940.00
2017-10-24T09:34:31.941Z,4532.00
2017-10-24T09:35:31.940Z,4624.00
2017-10-24T09:36:31.936Z,5900.00
2017-10-24T09:37:31.936Z,6304.00
2017-10-24T09:38:31.936Z,5552.00
2017-10-24T09:39:31.933Z,4756.00
2017-10-24T09:40:31.931Z,5728.00
2017-10-24T09:41:31.928Z,6636.00
2017-10-24T09:42:31.926Z,6212.00
2017-10-24T09:43:31.924Z,7176.00
2017-10-24T09:44:31.921Z,9192.00
2017-10-24T09:45:31.918Z,9648.00
2017-10-24T09:46:31.913Z,8384.00
2017-10-24T09:47:31.910Z,7196.00
2017-10-24T09:48:31.908Z,6436.00
2017-10-24T09:49:31.906Z,5824.00
2017-10-24T09:50:31.904Z,4688.00
2017-10-24T09:51:31.901Z,4540.00
2017-10-24T09:52:31.899Z,4980.00
2017-10-24T09:53:31.898Z,4716.00
2017-10-24T09:54:31.901Z,4616.00
2017-10-24T09:55:31.899Z,5084.00
2017-10-24T09:56:31.897Z,5576.00
2017-10-24T09:57:31.895Z,5916.00
2017-10-24T09:58:31.893Z,6404.00
2017-10-24T09:59:31.891Z,6656.00
2017-10-24T10:00:31.888Z,6180.00
2017-10-24T10:01:31.887Z,5808.00
2017-10-24T10:02:31.880Z,5648.00
2017-10-24T10:03:31.879Z,5212.00
2017-10-24T10:04:31.877Z,4724.00
2017-10-24T10:05:31.875Z,4492.00
2017-10-24T10:06:31.873Z,4944.00
2017-10-24T10:07:31.870Z,6088.00
2017-10-24T10:08:31.869Z,6820.00
2017-10-24T10:09:31.868Z,5600.00
2017-10-24T10:10:31.869Z,5116.00
2017-10-24T10:11:31.869Z,4692.00
2017-10-24T10:12:31.865Z,4088.00
2017-10-24T10:13:31.864Z,4356.00
2017-10-24T10:14:31.863Z,5364.00
2017-10-24T10:15:31.861Z,5520.00
2017-10-24T10:16:31.859Z,5292.00
2017-10-24T10:17:31.857Z,5600.00
2017-10-24T10:18:31.851Z,6152.00
2017-10-24T10:19:31.853Z,6436.00
2017-10-24T10:20:31.845Z,5928.00
2017-10-24T10:21:31.845Z,6208.00
2017-10-24T10:22:31.844Z,5572.00
2017-10-24T10:23:31.845Z,5248.00
2017-10-24T10:24:31.846Z,4736.00
2017-10-24T10:25:31.839Z,4800.00
2017-10-24T10:26:31.841Z,5368.00
2017-10-24T10:27:31.839Z,5684.00
2017-10-24T10:28:31.846Z,5072.00
2017-10-24T10:29:31.837Z,4580.00
2017-10-24T10:30:31.832Z,3676.00
2017-10-24T10:31:31.832Z,3260.00
2017-10-24T10:32:31.829Z,3476.00
2017-10-24T10:33:31.836Z,3884.00
2017-10-24T10:34:31.822Z,4288.00
2017-10-24T10:35:31.821Z,4404.00
2017-10-24T10:36:31.818Z,3704.00
2017-10-24T10:37:31.816Z,3236.00
2017-10-24T10:38:31.819Z,2932.00
2017-10-24T10:39:31.817Z,2696.00
2017-10-24T10:40:31.815Z,2452.00
2017-10-24T10:41:31.814Z,2168.00
2017-10-24T10:42:31.811Z,2396.00
2017-10-24T10:43:31.806Z,2580.00
2017-10-24T10:44:31.804Z,2860.00
2017-10-24T10:45:31.800Z,2880.00
2017-10-24T10:46:31.799Z,3044.00
2017-10-24T10:47:31.799Z,2960.00
2017-10-24T10:48:31.795Z,2808.00
2017-10-24T10:49:31.793Z,2820.00
2017-10-24T10:50:31.797Z,3032.00
2017-10-24T10:51:31.795Z,3404.00
2017-10-24T10:52:31.793Z,4120.00
2017-10-24T10:53:31.789Z,4396.00
2017-10-24T10:54:31.789Z,4532.00
2017-10-24T10:55:31.787Z,4444.00
2017-10-24T10:56:31.784Z,4116.00
2017-10-24T10:57:31.782Z,4440.00
2017-10-24T10:58:31.776Z,4484.00
2017-10-24T10:59:31.775Z,3948.00
2017-10-24T11:00:31.772Z,3592.00
2017-10-24T11:01:31.771Z,3232.00
2017-10-24T11:02:31.768Z,3392.00
2017-10-24T11:03:31.767Z,3352.00
2017-10-24T11:04:31.764Z,3268.00
2017-10-24T11:05:31.763Z,3056.00
2017-10-24T11:06:31.765Z,3016.00
2017-10-24T11:07:31.764Z,2884.00
2017-10-24T11:08:31.761Z,2764.00
2017-10-24T11:09:31.759Z,2564.00
2017-10-24T11:10:31.757Z,2316.00
2017-10-24T11:11:31.756Z,2112.00
2017-10-24T11:12:31.753Z,2036.00
2017-10-24T11:13:31.752Z,2228.00
2017-10-24T11:14:31.747Z,2496.00
2017-10-24T11:15:31.744Z,2844.00
2017-10-24T11:16:31.740Z,2892.00
2017-10-24T11:17:31.740Z,2856.00
2017-10-24T11:18:31.738Z,2828.00
2017-10-24T11:19:31.736Z,2540.00
2017-10-24T11:20:31.735Z,2200.00
2017-10-24T11:21:31.732Z,2140.00
2017-10-24T11:22:31.734Z,2176.00
2017-10-24T11:23:31.733Z,2208.00
2017-10-24T11:24:31.736Z,2268.00
2017-10-24T11:25:31.728Z,2404.00
2017-10-24T11:26:31.727Z,2360.00
2017-10-24T11:27:31.725Z,2388.00
2017-10-24T11:28:31.723Z,2328.00
2017-10-24T11:29:31.719Z,2180.00
2017-10-24T11:30:31.717Z,2052.00
2017-10-24T11:31:31.712Z,1980.00
2017-10-24T11:32:31.710Z,1896.00
2017-10-24T11:33:31.709Z,1952.00
2017-10-24T11:34:31.707Z,2100.00
2017-10-24T11:35:31.710Z,2348.00
2017-10-24T11:36:31.702Z,2464.00
2017-10-24T11:37:31.700Z,2688.00
2017-10-24T11:38:31.704Z,2796.00
2017-10-24T11:39:31.703Z,2616.00
2017-10-24T11:40:31.696Z,2436.00
2017-10-24T11:41:31.694Z,2588.00
2017-10-24T11:42:31.692Z,2680.00
2017-10-24T11:43:31.687Z,2804.00
2017-10-24T11:44:31.684Z,2708.00
2017-10-24T11:45:31.683Z,2692.00
2017-10-24T11:46:31.685Z,2496.00
2017-10-24T11:47:31.684Z,2420.00
2017-10-24T11:48:31.680Z,2436.00
2017-10-24T11:49:31.677Z,2384.00
2017-10-24T11:50:31.676Z,2344.00
2017-10-24T11:51:31.676Z,2428.00
2017-10-24T11:52:31.672Z,2460.00
2017-10-24T11:53:31.670Z,2504.00
2017-10-24T11:54:31.664Z,2564.00
2017-10-24T11:55:31.663Z,2564.00
2017-10-24T11:56:31.658Z,2616.00
2017-10-24T11:57:31.657Z,2624.00
2017-10-24T11:58:31.654Z,2700.00
2017-10-24T11:59:31.653Z,2660.00
2017-10-24T12:00:31.654Z,2652.00
2017-10-24T12:01:31.648Z,2528.00
2017-10-24T12:02:31.651Z,2524.00
2017-10-24T12:03:31.648Z,2264.00
2017-10-24T12:04:31.646Z,2208.00
2017-10-24T12:05:31.644Z,2224.00
2017-10-24T12:06:31.641Z,2016.00
2017-10-24T12:07:31.640Z,1984.00
2017-10-24T12:08:31.638Z,1976.00
2017-10-24T12:09:31.635Z,2032.00
2017-10-24T12:10:31.634Z,1948.00
2017-10-24T12:11:31.628Z,1924.00
2017-10-24T12:12:31.626Z,1964.00
2017-10-24T12:13:31.622Z,2180.00
2017-10-24T12:14:31.620Z,2124.00
2017-10-24T12:15:31.619Z,2076.00
2017-10-24T12:16:31.616Z,2064.00
2017-10-24T12:17:31.616Z,2020.00
2017-10-24T12:18:31.617Z,2004.00
2017-10-24T12:19:31.615Z,1844.00
2017-10-24T12:20:31.614Z,1944.00
2017-10-24T12:21:31.610Z,1880.00
2017-10-24T12:22:31.607Z,1764.00
2017-10-24T12:23:31.607Z,1684.00
2017-10-24T12:24:31.606Z,1716.00
2017-10-24T12:25:31.601Z,1672.00
2017-10-24T12:26:31.595Z,1680.00
2017-10-24T12:27:31.595Z,1696.00
2017-10-24T12:28:31.592Z,1664.00
2017-10-24T12:29:31.590Z,1512.00
2017-10-24T12:30:31.588Z,1464.00
2017-10-24T12:31:31.585Z,1384.00
2017-10-24T12:32:31.585Z,1452.00
2017-10-24T12:33:31.581Z,1468.00
2017-10-24T12:34:31.583Z,1480.00
2017-10-24T12:35:31.581Z,1484.00
2017-10-24T12:36:31.579Z,1424.00
2017-10-24T12:37:31.583Z,1464.00
2017-10-24T12:38:31.574Z,1380.00
2017-10-24T12:39:31.574Z,1268.00
2017-10-24T12:40:31.571Z,1252.00
2017-10-24T12:41:31.591Z,1264.00